Time;durP1;ratioP1;P1;durP2;ratioP2;P2;SDS_P1;SDS_P2;PMS_P1;PMS_P2;Temp;Humidity;BMP_temperature;BMP_pressure;BME280_temperature;BME280_humidity;BME280_pressure;Samples;Min_cycle;Max_cycle;Signal;HPM_P1;HPM_P2
2021/10/15 00:04:02;;;;;;;9.20;3.20;;;15.30;51.70;;;;;;20890564;27;82495;-70
2021/10/15 00:14:04;;;;;;;8.50;3.17;;;15.30;52.10;;;;;;20889486;27;80735;-70
2021/10/15 00:24:06;;;;;;;8.57;3.25;;;15.00;52.20;;;;;;20888966;27;80072;-70
2021/10/15 00:34:09;;;;;;;8.77;3.17;;;14.90;52.60;;;;;;20887667;28;81967;-70
2021/10/15 00:44:13;;;;;;;7.50;2.95;;;14.80;52.70;;;;;;20886042;28;80922;-71
2021/10/15 00:54:17;;;;;;;9.82;3.50;;;14.70;52.90;;;;;;20884104;27;80737;-71
2021/10/15 01:04:19;;;;;;;6.82;3.10;;;14.50;53.30;;;;;;20884412;28;80854;-71
2021/10/15 01:14:22;;;;;;;5.57;3.03;;;14.50;53.70;;;;;;20884930;27;81802;-71
2021/10/15 01:24:24;;;;;;;8.37;2.93;;;14.40;54.10;;;;;;20884839;27;81905;-70
2021/10/15 01:34:28;;;;;;;5.95;3.10;;;14.20;54.60;;;;;;20884145;27;80038;-71
2021/10/15 01:44:31;;;;;;;7.18;3.17;;;14.00;55.00;;;;;;20883689;27;80908;-69
2021/10/15 01:54:33;;;;;;;6.90;3.50;;;14.00;55.30;;;;;;20881834;27;80721;-70
2021/10/15 02:04:38;;;;;;;7.57;3.53;;;13.90;55.50;;;;;;20882084;27;80023;-70
2021/10/15 02:14:42;;;;;;;6.20;3.25;;;13.90;55.70;;;;;;20882122;27;82116;-70
2021/10/15 02:24:47;;;;;;;6.78;3.75;;;13.90;55.80;;;;;;20884990;27;80823;-71
2021/10/15 02:34:49;;;;;;;9.00;3.53;;;13.90;56.10;;;;;;20894743;28;82104;-71
2021/10/15 02:44:52;;;;;;;11.27;3.03;;;13.90;56.10;;;;;;20895223;27;81132;-71
2021/10/15 02:54:55;;;;;;;7.57;3.47;;;13.80;56.40;;;;;;20892952;28;82141;-70
2021/10/15 03:04:59;;;;;;;7.55;3.47;;;13.80;56.70;;;;;;20892623;27;80021;-71
2021/10/15 03:15:12;;;;;;;9.03;4.00;;;13.80;56.90;;;;;;20887732;28;81990;-70
2021/10/15 03:25:19;;;;;;;8.00;3.60;;;13.80;56.90;;;;;;20862680;28;81147;-71
2021/10/15 03:35:25;;;;;;;9.00;3.60;;;13.80;56.80;;;;;;20815418;28;81908;-71
2021/10/15 03:45:30;;;;;;;7.13;3.55;;;13.70;57.60;;;;;;20890452;28;81102;-70
2021/10/15 03:55:35;;;;;;;8.40;3.88;;;13.60;58.50;;;;;;20889533;28;81334;-71
2021/10/15 04:05:38;;;;;;;6.73;3.83;;;13.60;60.10;;;;;;20889627;27;82321;-71
2021/10/15 04:15:44;;;;;;;8.35;3.35;;;13.40;59.80;;;;;;20890737;27;81982;-71
2021/10/15 04:26:07;;;;;;;7.50;3.80;;;13.20;60.80;;;;;;20889171;27;80924;-71
2021/10/15 04:36:29;;;;;;;7.57;4.13;;;13.10;61.40;;;;;;20887382;27;80229;-70
2021/10/15 04:46:50;;;;;;;6.75;3.95;;;13.00;61.20;;;;;;20858548;28;81078;-73
2021/10/15 04:57:11;;;;;;;12.52;4.75;;;12.90;61.20;;;;;;20869418;28;80345;-71
2021/10/15 05:07:26;;;;;;;8.20;4.33;;;12.90;61.60;;;;;;20872769;28;82023;-72
2021/10/15 05:17:41;;;;;;;8.73;4.20;;;12.80;61.80;;;;;;20871380;27;81699;-71
2021/10/15 05:27:44;;;;;;;8.50;3.88;;;12.80;62.00;;;;;;20869374;28;82385;-73
2021/10/15 05:37:49;;;;;;;6.03;3.80;;;12.80;62.00;;;;;;20873036;28;81855;-72
2021/10/15 05:47:50;;;;;;;10.35;4.63;;;12.80;61.80;;;;;;20873342;27;81848;-74
2021/10/15 06:18:38;;;;;;;10.93;5.20;;;12.60;61.80;;;;;;20895652;28;81735;-73
2021/10/15 06:28:41;;;;;;;14.88;5.95;;;12.40;62.70;;;;;;20894448;27;81758;-75
2021/10/15 06:38:45;;;;;;;10.18;4.72;;;12.40;62.80;;;;;;20901372;27;81923;-67
2021/10/15 06:48:49;;;;;;;14.85;5.10;;;12.40;63.10;;;;;;20896513;28;81831;-72
2021/10/15 06:58:51;;;;;;;18.33;5.07;;;12.40;63.00;;;;;;20893359;28;81168;-64
2021/10/15 07:08:54;;;;;;;13.00;5.37;;;12.50;63.10;;;;;;20892864;27;81364;-67
2021/10/15 07:18:57;;;;;;;13.47;5.90;;;12.60;63.00;;;;;;20876775;27;81329;-66
2021/10/15 07:28:59;;;;;;;15.50;5.75;;;12.90;62.00;;;;;;20880691;27;80608;-68
2021/10/15 07:39:03;;;;;;;15.23;5.95;;;13.40;61.50;;;;;;20881771;27;81642;-64
2021/10/15 07:49:07;;;;;;;13.60;5.53;;;13.60;60.30;;;;;;20878189;28;81048;-67
2021/10/15 07:59:10;;;;;;;13.77;5.82;;;14.00;59.60;;;;;;20881171;27;81027;-65
2021/10/15 08:09:12;;;;;;;17.67;6.70;;;14.30;58.90;;;;;;20880077;27;80881;-66
2021/10/15 08:19:14;;;;;;;20.08;6.43;;;15.00;57.60;;;;;;20877021;27;82237;-67
2021/10/15 08:29:18;;;;;;;20.63;6.87;;;15.40;56.40;;;;;;20872049;27;82515;-64
2021/10/15 08:39:26;;;;;;;17.55;7.30;;;16.00;55.10;;;;;;20876347;27;80791;-65
2021/10/15 08:49:28;;;;;;;13.65;5.88;;;16.50;54.40;;;;;;20877644;27;80506;-65
2021/10/15 08:59:39;;;;;;;13.98;6.80;;;17.00;53.50;;;;;;20876212;27;80800;-64
2021/10/15 09:09:43;;;;;;;14.75;6.82;;;17.50;53.50;;;;;;20877432;27;81844;-65
2021/10/15 09:19:50;;;;;;;13.35;6.88;;;18.20;52.90;;;;;;20873124;27;81804;-65
2021/10/15 09:29:58;;;;;;;11.65;6.13;;;18.70;51.90;;;;;;20872554;27;80536;-66
2021/10/15 09:40:14;;;;;;;16.05;6.80;;;19.40;51.30;;;;;;20864253;27;81557;-65
2021/10/15 09:50:29;;;;;;;12.95;6.05;;;21.80;45.70;;;;;;20866463;27;82424;-64
2021/10/15 10:00:31;;;;;;;10.00;6.10;;;24.90;38.90;;;;;;20859058;27;81817;-63
2021/10/15 10:10:35;;;;;;;11.50;6.93;;;26.90;35.80;;;;;;20852574;27;81706;-63
2021/10/15 10:20:41;;;;;;;13.23;7.80;;;29.10;32.70;;;;;;20861463;27;81873;-64
2021/10/15 10:30:48;;;;;;;19.20;8.38;;;31.50;28.90;;;;;;20850213;27;80844;-65
2021/10/15 10:41:00;;;;;;;13.15;8.80;;;34.30;26.00;;;;;;20872171;27;81257;-63
2021/10/15 10:51:11;;;;;;;16.17;7.25;;;36.60;24.10;;;;;;20881894;27;81250;-66
2021/10/15 11:01:21;;;;;;;16.90;7.67;;;38.20;22.20;;;;;;20885797;27;81833;-64
2021/10/15 11:11:23;;;;;;;12.70;6.65;;;40.00;20.60;;;;;;20882686;27;81872;-64
2021/10/15 11:21:24;;;;;;;12.52;6.72;;;38.70;21.10;;;;;;20881106;27;81336;-65
2021/10/15 11:31:26;;;;;;;13.73;6.13;;;37.10;22.70;;;;;;20880252;27;81847;-66
2021/10/15 11:41:28;;;;;;;12.38;5.97;;;31.30;28.50;;;;;;20879454;28;81833;-65
2021/10/15 11:51:30;;;;;;;9.88;5.72;;;35.20;24.40;;;;;;20879026;28;81448;-64
2021/10/15 12:01:34;;;;;;;16.42;6.70;;;36.70;22.80;;;;;;20880072;28;81859;-64
2021/10/15 12:11:40;;;;;;;16.00;5.75;;;34.50;24.40;;;;;;20878521;28;81782;-67
2021/10/15 12:21:48;;;;;;;9.00;5.45;;;32.50;26.50;;;;;;20873078;28;81714;-65
2021/10/15 12:32:07;;;;;;;9.63;4.97;;;31.70;27.90;;;;;;20877995;28;82151;-64
2021/10/15 12:42:16;;;;;;;8.80;5.28;;;32.20;27.70;;;;;;20874159;27;81827;-61
2021/10/15 12:52:40;;;;;;;16.00;4.53;;;35.70;23.10;;;;;;20871364;27;85246;-66
2021/10/15 13:02:42;;;;;;;9.65;4.88;;;33.40;24.70;;;;;;20872559;28;81131;-67
2021/10/15 13:12:45;;;;;;;10.30;4.28;;;32.50;25.10;;;;;;20881083;27;81795;-67
2021/10/15 13:22:47;;;;;;;5.55;3.45;;;35.80;21.90;;;;;;20881259;27;82046;-67
2021/10/15 13:32:49;;;;;;;6.60;3.42;;;31.90;25.50;;;;;;20881075;27;80835;-66
2021/10/15 13:53:38;;;;;;;9.32;2.70;;;31.70;25.80;;;;;;20799644;28;80798;-72
2021/10/15 14:03:52;;;;;;;6.18;3.22;;;35.80;21.50;;;;;;20847047;28;81089;-66
2021/10/15 14:13:54;;;;;;;5.18;3.40;;;35.60;22.00;;;;;;20853559;28;80647;-70
2021/10/15 14:23:56;;;;;;;8.10;3.83;;;35.60;22.00;;;;;;20858732;27;81853;-67
2021/10/15 14:33:59;;;;;;;18.08;4.05;;;33.40;24.20;;;;;;20813803;27;80764;-68
2021/10/15 14:44:02;;;;;;;6.15;3.28;;;31.00;26.60;;;;;;20800950;28;80564;-69
2021/10/15 14:54:06;;;;;;;4.82;2.72;;;30.50;26.00;;;;;;20801228;28;81826;-68
2021/10/15 15:04:08;;;;;;;6.28;2.90;;;30.50;25.20;;;;;;20807370;28;82227;-67
2021/10/15 15:14:10;;;;;;;5.03;2.65;;;30.90;25.10;;;;;;20810510;28;80763;-69
2021/10/15 15:24:15;;;;;;;3.95;2.70;;;31.30;24.50;;;;;;20812061;28;81789;-66
2021/10/15 15:34:17;;;;;;;4.25;2.50;;;31.60;24.10;;;;;;20810938;28;81880;-68
2021/10/15 15:44:26;;;;;;;6.93;2.70;;;32.10;24.20;;;;;;20810089;28;81732;-69
2021/10/15 15:54:29;;;;;;;3.73;2.40;;;30.40;25.50;;;;;;20811082;28;81038;-70
2021/10/15 16:04:31;;;;;;;6.68;2.83;;;28.20;28.00;;;;;;20810938;28;81920;-69
2021/10/15 16:14:34;;;;;;;3.92;2.65;;;27.00;29.20;;;;;;20809606;28;80701;-69
2021/10/15 16:24:41;;;;;;;9.10;2.80;;;26.50;29.50;;;;;;20808135;28;81549;-68
2021/10/15 16:34:42;;;;;;;6.38;2.80;;;26.00;29.90;;;;;;20808586;28;81844;-67
2021/10/15 16:44:44;;;;;;;9.27;2.65;;;25.60;30.50;;;;;;20806653;28;80765;-66
2021/10/15 16:54:48;;;;;;;7.03;2.97;;;25.20;31.20;;;;;;20806867;28;81892;-69
2021/10/15 17:04:52;;;;;;;7.95;2.78;;;24.90;31.80;;;;;;20806509;28;79897;-69
2021/10/15 17:14:54;;;;;;;5.53;2.90;;;24.50;32.70;;;;;;20822082;28;81643;-68
2021/10/15 17:24:58;;;;;;;9.88;3.28;;;24.00;33.70;;;;;;20885156;27;80272;-68
2021/10/15 17:35:00;;;;;;;9.60;4.50;;;23.70;35.60;;;;;;20887117;27;80748;-68
2021/10/15 17:45:04;;;;;;;10.02;4.20;;;23.20;38.30;;;;;;20883706;27;81895;-68
2021/10/15 17:55:07;;;;;;;8.27;4.43;;;22.80;39.90;;;;;;20867328;28;82058;-68
2021/10/15 18:05:10;;;;;;;9.98;5.40;;;22.40;41.20;;;;;;20885386;27;81878;-69
2021/10/15 18:15:13;;;;;;;8.90;5.38;;;22.00;42.40;;;;;;20884413;28;81018;-68
2021/10/15 18:25:16;;;;;;;11.23;3.92;;;21.70;43.00;;;;;;20884382;27;80690;-67
2021/10/15 18:35:18;;;;;;;10.48;5.43;;;21.50;43.40;;;;;;20884291;27;81814;-64
2021/10/15 18:45:20;;;;;;;9.02;5.03;;;21.30;44.30;;;;;;20883306;27;80654;-73
2021/10/15 18:55:23;;;;;;;10.55;5.60;;;21.00;44.90;;;;;;20882026;27;81136;-73
2021/10/15 19:05:25;;;;;;;10.73;5.40;;;20.80;45.60;;;;;;20883093;27;81906;-75
2021/10/15 19:15:27;;;;;;;16.33;6.70;;;20.60;45.80;;;;;;20896466;28;81836;-69
2021/10/15 19:25:28;;;;;;;12.33;4.37;;;20.40;46.60;;;;;;20894272;28;81785;-71
2021/10/15 19:35:31;;;;;;;9.73;5.30;;;20.30;45.80;;;;;;20893126;28;80600;-70
2021/10/15 19:45:36;;;;;;;8.57;4.40;;;20.30;44.70;;;;;;20893160;28;82444;-70
2021/10/15 19:55:39;;;;;;;9.57;4.40;;;20.20;44.30;;;;;;20892587;28;81772;-76
2021/10/15 20:05:41;;;;;;;6.53;3.83;;;20.20;44.00;;;;;;20893164;28;81430;-75
2021/10/15 20:15:44;;;;;;;10.30;4.32;;;20.00;44.40;;;;;;20875619;28;80064;-75
2021/10/15 20:25:46;;;;;;;8.35;3.88;;;19.80;44.70;;;;;;20892971;27;80930;-74
2021/10/15 20:35:47;;;;;;;12.60;3.83;;;19.70;44.90;;;;;;20889802;28;81988;-74
2021/10/15 20:45:53;;;;;;;8.25;4.18;;;19.60;45.70;;;;;;20888859;28;81172;-74
2021/10/15 20:55:55;;;;;;;8.85;4.22;;;19.40;46.90;;;;;;20888573;27;80193;-74
2021/10/15 21:05:57;;;;;;;11.10;5.77;;;19.00;48.20;;;;;;20887277;28;80751;-74
2021/10/15 21:15:59;;;;;;;;;;;18.70;49.00;;;;;;20889325;27;80912;-75
2021/10/15 21:26:03;;;;;;;13.00;5.55;;;18.40;49.80;;;;;;20907633;28;81550;-74
2021/10/15 21:36:07;;;;;;;14.63;7.43;;;18.30;50.50;;;;;;20885906;27;80480;-74
2021/10/15 21:46:09;;;;;;;13.57;5.87;;;18.10;51.20;;;;;;20884886;28;82059;-73
2021/10/15 21:56:14;;;;;;;11.87;5.93;;;17.90;51.50;;;;;;20884979;27;80002;-72
2021/10/15 22:06:16;;;;;;;12.30;4.75;;;17.80;51.40;;;;;;20883490;28;81959;-71
2021/10/15 22:16:18;;;;;;;11.95;5.97;;;17.50;52.10;;;;;;20883870;28;81897;-71
2021/10/15 22:26:21;;;;;;;7.03;4.78;;;17.50;51.80;;;;;;20883765;28;81988;-75
2021/10/15 22:36:23;;;;;;;9.77;5.07;;;17.50;50.70;;;;;;20883594;27;81877;-72
2021/10/15 22:46:26;;;;;;;8.02;4.55;;;17.50;50.40;;;;;;20892611;27;81672;-73
2021/10/15 22:56:28;;;;;;;10.25;6.13;;;17.30;50.70;;;;;;20894751;28;80994;-73
2021/10/15 23:06:30;;;;;;;8.45;4.15;;;17.10;50.70;;;;;;20895458;27;81804;-74
2021/10/15 23:16:32;;;;;;;7.03;3.60;;;17.00;50.80;;;;;;20894519;28;81972;-72
2021/10/15 23:26:34;;;;;;;5.67;3.53;;;16.90;50.40;;;;;;20892936;28;82325;-73
2021/10/15 23:36:35;;;;;;;6.82;3.45;;;16.70;50.50;;;;;;20893556;28;82156;-73
2021/10/15 23:46:37;;;;;;;5.15;3.53;;;16.50;50.80;;;;;;20892868;27;82229;-74
2021/10/15 23:56:39;;;;;;;8.00;3.70;;;16.40;50.90;;;;;;20891627;27;81730;-76
